createdAt,value
2019-01-30T00:01:49.263Z,88.60
2019-01-30T00:04:25.447Z,88.80
2019-01-30T00:07:04.304Z,88.80
2019-01-30T00:09:51.454Z,88.80
2019-01-30T00:12:54.612Z,89.00
2019-01-30T00:15:38.902Z,88.90
2019-01-30T00:18:37.050Z,89.00
2019-01-30T00:21:10.027Z,88.80
2019-01-30T00:23:41.263Z,88.50
2019-01-30T00:26:37.750Z,88.70
2019-01-30T00:29:14.697Z,88.10
2019-01-30T00:31:44.762Z,88.00
2019-01-30T00:34:16.079Z,88.00
2019-01-30T00:36:47.228Z,87.80
2019-01-30T00:39:35.159Z,87.90
2019-01-30T00:42:08.464Z,88.20
2019-01-30T00:44:42.667Z,87.90
2019-01-30T00:47:27.553Z,87.70
2019-01-30T00:50:01.797Z,87.80
2019-01-30T00:52:33.102Z,87.80
2019-01-30T00:55:09.449Z,87.80
2019-01-30T00:57:40.697Z,88.20
2019-01-30T01:00:25.956Z,88.80
2019-01-30T01:03:09.713Z,87.60
2019-01-30T01:05:40.939Z,88.00
2019-01-30T01:08:12.703Z,88.40
2019-01-30T01:10:43.998Z,88.30
2019-01-30T01:13:20.220Z,88.20
2019-01-30T01:15:51.309Z,87.90
2019-01-30T01:18:22.541Z,87.80
2019-01-30T01:21:14.944Z,87.50
2019-01-30T01:24:10.626Z,87.10
2019-01-30T01:26:46.259Z,86.80
2019-01-30T01:29:17.343Z,87.20
2019-01-30T01:31:48.633Z,86.90
2019-01-30T01:34:21.311Z,86.60
2019-01-30T01:36:52.504Z,86.80
2019-01-30T01:39:45.164Z,86.80
2019-01-30T01:42:28.007Z,87.90
2019-01-30T01:45:09.297Z,87.90
2019-01-30T01:47:42.816Z,87.20
2019-01-30T01:50:23.284Z,88.00
2019-01-30T01:52:58.528Z,87.40
2019-01-30T01:55:44.204Z,87.90
2019-01-30T01:58:24.766Z,88.10
2019-01-30T02:01:23.297Z,87.80
2019-01-30T02:03:50.922Z,87.80
2019-01-30T02:06:29.346Z,87.80
2019-01-30T02:09:18.613Z,87.60
2019-01-30T02:12:10.878Z,87.00
2019-01-30T02:14:47.625Z,86.60
2019-01-30T02:17:40.135Z,86.10
2019-01-30T02:20:39.853Z,85.50
2019-01-30T02:23:16.152Z,85.60
2019-01-30T02:26:05.052Z,85.70
2019-01-30T02:29:02.008Z,86.80
2019-01-30T02:31:45.650Z,86.60
2019-01-30T02:34:22.794Z,86.70
2019-01-30T02:37:13.213Z,87.00
2019-01-30T02:39:49.921Z,86.70
2019-01-30T02:42:28.875Z,87.50
2019-01-30T02:45:18.076Z,87.50
2019-01-30T02:48:05.166Z,87.20
2019-01-30T02:50:41.756Z,87.30
2019-01-30T02:53:19.889Z,86.70
2019-01-30T02:55:52.287Z,87.00
2019-01-30T02:58:35.179Z,87.40
2019-01-30T03:01:09.770Z,87.00
2019-01-30T03:03:41.191Z,87.20
2019-01-30T03:06:15.033Z,88.90
2019-01-30T03:08:51.602Z,88.50
2019-01-30T03:11:29.329Z,88.80
2019-01-30T03:14:06.804Z,89.50
2019-01-30T03:16:42.638Z,89.70
2019-01-30T03:19:15.031Z,89.50
2019-01-30T03:21:46.867Z,89.70
2019-01-30T03:24:19.930Z,89.40
2019-01-30T03:26:51.512Z,89.50
2019-01-30T03:29:28.429Z,90.00
2019-01-30T03:32:05.512Z,89.70
2019-01-30T03:34:45.698Z,89.80
2019-01-30T03:37:26.392Z,90.00
2019-01-30T03:40:09.820Z,90.20
2019-01-30T03:42:51.453Z,90.40
2019-01-30T03:45:41.395Z,90.50
2019-01-30T03:48:16.986Z,90.60
2019-01-30T03:51:02.228Z,90.60
2019-01-30T03:53:38.035Z,90.80
2019-01-30T03:56:25.987Z,90.80
2019-01-30T03:59:13.249Z,90.70
2019-01-30T04:01:52.391Z,90.60
2019-01-30T04:04:26.408Z,90.80
2019-01-30T04:06:57.624Z,90.50
2019-01-30T04:09:36.160Z,90.70
2019-01-30T04:12:10.461Z,90.50
2019-01-30T04:14:47.015Z,90.60
2019-01-30T04:17:21.200Z,90.50
2019-01-30T04:19:59.050Z,90.70
2019-01-30T04:22:33.684Z,90.70
2019-01-30T04:25:16.167Z,90.90
2019-01-30T04:27:52.131Z,90.80
2019-01-30T04:30:30.025Z,91.20
2019-01-30T04:33:07.296Z,90.80
2019-01-30T04:35:38.179Z,90.90
2019-01-30T04:38:11.182Z,90.90
2019-01-30T04:40:42.590Z,91.00
2019-01-30T04:43:19.529Z,90.80
2019-01-30T04:46:08.621Z,90.60
2019-01-30T04:48:42.667Z,90.70
2019-01-30T04:51:16.114Z,90.90
2019-01-30T04:53:49.170Z,90.70
2019-01-30T04:56:33.051Z,90.80
2019-01-30T04:59:11.819Z,90.50
2019-01-30T05:01:50.027Z,90.50
2019-01-30T05:04:37.171Z,90.80
2019-01-30T05:07:13.463Z,90.60
2019-01-30T05:10:01.277Z,90.70
2019-01-30T05:12:51.638Z,90.80
2019-01-30T05:15:35.649Z,90.70
2019-01-30T05:18:16.813Z,90.70
2019-01-30T05:21:00.820Z,90.60
2019-01-30T05:23:39.910Z,90.70
2019-01-30T05:26:15.011Z,90.60
2019-01-30T05:28:49.782Z,90.60
2019-01-30T05:31:26.007Z,90.40
2019-01-30T05:34:07.264Z,90.40
2019-01-30T05:36:41.692Z,90.40
2019-01-30T05:39:13.091Z,90.40
2019-01-30T05:41:49.693Z,90.30
2019-01-30T05:44:34.464Z,90.20
2019-01-30T05:47:18.786Z,90.00
2019-01-30T05:50:00.856Z,90.10
2019-01-30T05:52:50.541Z,90.00
2019-01-30T05:55:37.208Z,89.70
2019-01-30T05:58:13.469Z,89.90
2019-01-30T06:00:55.724Z,89.90
2019-01-30T06:03:36.586Z,90.10
2019-01-30T06:06:16.279Z,90.00
2019-01-30T06:08:53.618Z,89.90
2019-01-30T06:11:34.232Z,90.10
2019-01-30T06:14:09.798Z,90.00
2019-01-30T06:16:45.865Z,89.70
2019-01-30T06:19:22.497Z,90.00
2019-01-30T06:22:11.339Z,90.00
2019-01-30T06:25:09.515Z,90.10
2019-01-30T06:27:40.969Z,89.80
2019-01-30T06:30:29.373Z,90.00
2019-01-30T06:33:25.913Z,90.00
2019-01-30T06:36:01.332Z,89.90
2019-01-30T06:38:41.956Z,90.20
2019-01-30T06:41:41.217Z,89.90
2019-01-30T06:44:20.889Z,89.70
2019-01-30T06:47:07.663Z,89.90
2019-01-30T06:49:45.677Z,89.30
2019-01-30T06:52:21.870Z,88.70
2019-01-30T06:54:59.739Z,88.70
2019-01-30T06:57:30.647Z,89.00
2019-01-30T07:00:02.176Z,88.50
2019-01-30T07:02:34.309Z,88.60
2019-01-30T07:05:10.553Z,89.10
2019-01-30T07:07:44.179Z,88.80
2019-01-30T07:10:21.408Z,88.80
2019-01-30T07:12:52.659Z,88.70
2019-01-30T07:15:24.510Z,88.90
2019-01-30T07:17:56.787Z,88.20
2019-01-30T07:20:28.084Z,88.90
2019-01-30T07:22:59.183Z,88.60
2019-01-30T07:25:29.911Z,89.20
2019-01-30T07:28:00.571Z,88.50
2019-01-30T07:30:38.452Z,88.30
2019-01-30T07:33:09.512Z,87.80
2019-01-30T07:35:40.315Z,87.20
2019-01-30T07:38:11.052Z,86.90
2019-01-30T07:40:41.856Z,86.80
2019-01-30T07:43:12.576Z,86.80
2019-01-30T07:45:43.329Z,86.10
2019-01-30T07:48:14.145Z,85.80
2019-01-30T07:50:44.880Z,86.20
2019-01-30T07:53:15.717Z,85.40
2019-01-30T07:55:46.667Z,84.80
2019-01-30T07:58:17.287Z,85.10
2019-01-30T08:00:51.068Z,85.10
2019-01-30T08:03:21.779Z,84.80
2019-01-30T08:05:52.949Z,84.90
2019-01-30T08:08:23.655Z,84.30
2019-01-30T08:10:54.415Z,84.30
2019-01-30T08:13:28.752Z,83.80
2019-01-30T08:15:59.651Z,83.60
2019-01-30T08:18:33.403Z,82.70
2019-01-30T08:21:04.426Z,82.10
2019-01-30T08:23:35.472Z,81.20
2019-01-30T08:26:07.973Z,79.90
2019-01-30T08:28:39.251Z,79.70
2019-01-30T08:31:10.459Z,78.50
2019-01-30T08:33:47.327Z,76.50
2019-01-30T08:36:18.664Z,74.80
2019-01-30T08:38:51.826Z,70.70
2019-01-30T08:41:21.564Z,69.20
2019-01-30T08:43:52.135Z,67.70
2019-01-30T08:46:22.893Z,67.30
2019-01-30T08:48:55.483Z,66.20
2019-01-30T08:51:26.559Z,66.40
2019-01-30T08:53:57.474Z,67.10
2019-01-30T08:56:28.467Z,66.90
2019-01-30T08:58:59.229Z,67.00
2019-01-30T09:01:38.653Z,65.60
2019-01-30T09:04:11.359Z,65.90
2019-01-30T09:06:44.447Z,63.60
2019-01-30T09:09:23.363Z,63.80
2019-01-30T09:11:57.627Z,65.30
2019-01-30T09:14:27.704Z,63.60
2019-01-30T09:16:58.425Z,64.30
2019-01-30T09:19:29.239Z,63.40
2019-01-30T09:22:00.275Z,63.10
2019-01-30T09:24:38.393Z,62.60
2019-01-30T09:27:09.123Z,61.20
2019-01-30T09:29:38.996Z,61.00
2019-01-30T09:32:09.540Z,61.90
2019-01-30T09:34:40.351Z,62.90
2019-01-30T09:37:11.142Z,63.40
2019-01-30T09:39:42.474Z,64.30
2019-01-30T09:42:13.181Z,65.00
2019-01-30T09:44:44.049Z,64.10
2019-01-30T09:47:14.977Z,63.90
2019-01-30T09:49:45.699Z,62.00
2019-01-30T09:52:26.401Z,61.90
2019-01-30T09:54:48.923Z,58.20
2019-01-30T09:57:29.956Z,57.90
2019-01-30T10:00:02.813Z,53.40
2019-01-30T10:02:34.656Z,44.90
2019-01-30T10:05:06.049Z,45.70
2019-01-30T10:07:36.877Z,44.80
2019-01-30T10:10:11.337Z,46.60
2019-01-30T10:12:42.123Z,46.70
2019-01-30T10:15:16.053Z,48.80
2019-01-30T10:17:47.196Z,49.70
2019-01-30T10:20:20.374Z,49.20
2019-01-30T10:22:58.427Z,48.70
2019-01-30T10:25:29.444Z,48.10
2019-01-30T10:28:00.205Z,47.40
2019-01-30T10:30:33.498Z,47.70
2019-01-30T10:33:04.576Z,49.50
2019-01-30T10:35:38.139Z,49.50
2019-01-30T10:38:09.116Z,51.90
2019-01-30T10:40:39.858Z,54.70
2019-01-30T10:43:10.661Z,55.30
2019-01-30T10:45:41.376Z,54.60
2019-01-30T10:48:12.772Z,55.10
2019-01-30T10:50:45.194Z,54.60
2019-01-30T10:53:20.112Z,54.50
2019-01-30T10:55:50.795Z,55.60
2019-01-30T10:58:21.726Z,55.10
2019-01-30T11:00:54.867Z,55.50
2019-01-30T11:03:31.872Z,56.40
2019-01-30T11:06:01.509Z,57.80
2019-01-30T11:08:31.136Z,57.30
2019-01-30T11:11:07.615Z,58.20
2019-01-30T11:13:31.934Z,57.90
2019-01-30T11:16:02.392Z,59.80
2019-01-30T11:18:33.380Z,62.30
2019-01-30T11:21:06.077Z,62.90
2019-01-30T11:23:36.777Z,63.40
2019-01-30T11:26:07.524Z,63.10
2019-01-30T11:28:38.380Z,63.00
2019-01-30T11:31:11.308Z,63.70
2019-01-30T11:33:42.277Z,63.50
2019-01-30T11:36:13.156Z,63.20
2019-01-30T11:38:43.978Z,64.10
2019-01-30T11:41:14.977Z,64.40
2019-01-30T11:43:46.320Z,64.30
2019-01-30T11:46:16.990Z,64.40
2019-01-30T11:48:56.506Z,64.10
2019-01-30T11:51:25.077Z,65.20
2019-01-30T11:53:55.872Z,65.30
2019-01-30T11:56:26.686Z,65.00
2019-01-30T11:58:57.295Z,65.00
2019-01-30T12:01:32.367Z,66.10
2019-01-30T12:04:03.075Z,66.30
2019-01-30T12:06:33.647Z,66.60
2019-01-30T12:09:06.943Z,67.00
2019-01-30T12:11:37.554Z,67.20
2019-01-30T12:14:08.314Z,66.70
2019-01-30T12:16:39.089Z,66.50
2019-01-30T12:19:09.850Z,67.20
2019-01-30T12:21:40.784Z,67.70
2019-01-30T12:24:11.690Z,68.30
2019-01-30T12:26:42.649Z,67.50
2019-01-30T12:29:15.386Z,68.00
2019-01-30T12:31:46.036Z,67.90
2019-01-30T12:34:28.126Z,69.00
2019-01-30T12:36:54.038Z,69.20
2019-01-30T12:39:29.980Z,69.60
2019-01-30T12:42:02.973Z,69.20
2019-01-30T12:44:37.900Z,69.70
2019-01-30T12:47:07.824Z,69.90
2019-01-30T12:49:42.940Z,70.70
2019-01-30T12:52:19.028Z,70.50
2019-01-30T12:54:53.527Z,69.90
2019-01-30T12:57:25.754Z,70.40
2019-01-30T12:59:58.051Z,70.10
2019-01-30T13:02:30.474Z,70.60
2019-01-30T13:05:02.435Z,70.70
2019-01-30T13:07:33.439Z,71.30
2019-01-30T13:10:05.067Z,71.50
2019-01-30T13:12:42.812Z,72.30
2019-01-30T13:15:14.721Z,72.80
2019-01-30T13:17:49.204Z,73.30
2019-01-30T13:20:19.697Z,74.10
2019-01-30T13:22:50.549Z,75.80
2019-01-30T13:25:26.506Z,76.40
2019-01-30T13:27:59.320Z,77.20
2019-01-30T13:30:33.087Z,77.30
2019-01-30T13:33:02.858Z,76.40
2019-01-30T13:35:33.842Z,75.70
2019-01-30T13:38:03.489Z,76.00
2019-01-30T13:40:35.334Z,76.10
2019-01-30T13:43:07.125Z,75.90
2019-01-30T13:45:37.236Z,75.60
2019-01-30T13:48:09.240Z,75.90
2019-01-30T13:50:46.886Z,75.50
2019-01-30T13:53:16.791Z,75.70
2019-01-30T13:55:46.534Z,75.70
2019-01-30T13:58:16.333Z,75.40
2019-01-30T14:00:46.684Z,74.80
2019-01-30T14:03:18.685Z,74.20
2019-01-30T14:06:16.443Z,74.50
2019-01-30T14:08:46.469Z,74.80
2019-01-30T14:11:16.073Z,74.60
2019-01-30T14:13:45.871Z,74.90
2019-01-30T14:16:17.325Z,75.20
2019-01-30T14:18:52.274Z,75.70
2019-01-30T14:21:27.409Z,76.10
2019-01-30T14:23:59.260Z,76.40
2019-01-30T14:26:31.231Z,76.10
2019-01-30T14:29:01.337Z,75.40
2019-01-30T14:31:31.303Z,74.60
2019-01-30T14:34:03.336Z,74.50
2019-01-30T14:36:36.157Z,75.00
2019-01-30T14:39:09.159Z,74.80
2019-01-30T14:41:39.146Z,74.30
2019-01-30T14:44:09.218Z,74.60
2019-01-30T14:46:42.386Z,74.80
2019-01-30T14:49:13.462Z,74.40
2019-01-30T14:51:43.276Z,74.10
2019-01-30T14:54:12.986Z,74.00
2019-01-30T14:56:43.648Z,74.60
2019-01-30T14:59:14.613Z,75.00
2019-01-30T15:01:46.455Z,74.70
2019-01-30T15:04:16.558Z,74.30
2019-01-30T15:07:07.958Z,74.60
2019-01-30T15:09:41.810Z,73.80
2019-01-30T15:12:12.559Z,73.80
2019-01-30T15:14:48.174Z,74.20
2019-01-30T15:17:17.831Z,74.60
2019-01-30T15:19:53.867Z,75.20
2019-01-30T15:22:21.664Z,74.50
2019-01-30T15:24:55.523Z,74.20
2019-01-30T15:27:29.644Z,74.50
2019-01-30T15:29:59.542Z,74.60
2019-01-30T15:32:31.726Z,74.60
2019-01-30T15:35:02.463Z,75.10
2019-01-30T15:37:32.222Z,75.10
2019-01-30T15:40:02.155Z,75.00
2019-01-30T15:42:33.086Z,75.00
2019-01-30T15:45:10.877Z,74.90
2019-01-30T15:47:46.574Z,75.10
2019-01-30T15:50:29.994Z,75.10
2019-01-30T15:53:18.279Z,75.30
2019-01-30T15:55:51.490Z,75.10
2019-01-30T15:58:56.448Z,75.70
2019-01-30T16:01:43.049Z,75.90
2019-01-30T16:04:27.647Z,75.80
2019-01-30T16:07:11.509Z,76.20
2019-01-30T16:09:43.698Z,76.30
2019-01-30T16:12:28.648Z,76.40
2019-01-30T16:15:03.561Z,76.10
2019-01-30T16:17:45.301Z,76.30
2019-01-30T16:20:27.675Z,76.40
2019-01-30T16:23:08.836Z,76.00
2019-01-30T16:25:48.810Z,76.20
2019-01-30T16:28:24.498Z,76.40
2019-01-30T16:31:14.716Z,76.60
2019-01-30T16:36:49.010Z,76.90
2019-01-30T16:39:18.912Z,76.90
2019-01-30T16:41:53.020Z,76.80
2019-01-30T16:44:24.178Z,77.10
2019-01-30T16:46:56.083Z,77.30
2019-01-30T16:49:30.848Z,77.30
2019-01-30T16:52:01.123Z,76.90
2019-01-30T16:54:32.545Z,76.60
2019-01-30T16:57:18.262Z,77.10
2019-01-30T17:00:23.943Z,76.70
2019-01-30T17:02:58.203Z,76.90
2019-01-30T17:06:07.520Z,76.50
2019-01-30T17:09:05.802Z,76.60
2019-01-30T17:11:45.472Z,76.00
2019-01-30T17:14:20.689Z,76.20
2019-01-30T17:17:07.163Z,76.10
2019-01-30T17:19:43.767Z,75.70
2019-01-30T17:22:20.774Z,75.90
2019-01-30T17:25:04.116Z,75.50
2019-01-30T17:27:33.822Z,75.80
2019-01-30T17:30:10.678Z,76.50
2019-01-30T17:35:33.668Z,76.40
2019-01-30T17:38:17.434Z,76.80
2019-01-30T17:40:55.480Z,75.90
2019-01-30T17:43:26.494Z,75.90
2019-01-30T17:46:00.688Z,76.10
2019-01-30T17:48:35.319Z,76.30
2019-01-30T17:51:08.480Z,76.30
2019-01-30T17:53:41.283Z,76.10
2019-01-30T17:56:12.143Z,76.20
2019-01-30T17:58:42.109Z,76.40
2019-01-30T18:01:16.884Z,76.30
2019-01-30T18:03:47.924Z,76.20
2019-01-30T18:06:29.244Z,76.10
2019-01-30T18:08:50.326Z,76.90
2019-01-30T18:11:21.664Z,77.10
2019-01-30T18:13:54.639Z,76.60
2019-01-30T18:16:27.226Z,76.60
2019-01-30T18:19:01.257Z,76.40
2019-01-30T18:21:34.546Z,76.50
2019-01-30T18:24:04.103Z,76.80
2019-01-30T18:26:38.036Z,77.50
2019-01-30T18:29:16.052Z,77.80
2019-01-30T18:31:46.122Z,78.10
2019-01-30T18:34:15.979Z,78.60
2019-01-30T18:36:45.817Z,79.30
2019-01-30T18:39:17.305Z,80.20
2019-01-30T18:41:47.235Z,80.80
2019-01-30T18:44:17.496Z,82.30
2019-01-30T18:46:47.395Z,83.10
2019-01-30T18:49:31.053Z,84.50
2019-01-30T18:52:04.850Z,83.90
2019-01-30T18:54:36.101Z,84.70
2019-01-30T18:57:07.502Z,84.10
2019-01-30T18:59:37.856Z,84.00
2019-01-30T19:02:11.411Z,84.30
2019-01-30T19:04:46.343Z,83.30
2019-01-30T19:07:20.703Z,82.30
2019-01-30T19:09:54.235Z,81.30
2019-01-30T19:12:26.967Z,80.60
2019-01-30T19:15:01.636Z,80.00
2019-01-30T19:17:32.208Z,79.70
2019-01-30T19:20:09.121Z,79.70
2019-01-30T19:22:45.502Z,80.20
2019-01-30T19:25:17.139Z,79.60
2019-01-30T19:27:49.072Z,78.80
2019-01-30T19:30:28.514Z,77.80
2019-01-30T19:33:05.581Z,77.60
2019-01-30T19:35:39.795Z,77.30
2019-01-30T19:38:11.844Z,77.30
2019-01-30T19:40:45.675Z,77.00
2019-01-30T19:43:18.772Z,77.00
2019-01-30T19:45:50.825Z,77.20
2019-01-30T19:48:22.322Z,77.00
2019-01-30T19:50:53.819Z,77.30
2019-01-30T19:53:26.553Z,77.30
2019-01-30T19:55:57.689Z,77.20
2019-01-30T19:58:30.565Z,77.20
2019-01-30T20:01:04.866Z,77.30
2019-01-30T20:03:36.817Z,77.50
2019-01-30T20:06:11.712Z,77.10
2019-01-30T20:08:42.927Z,76.90
2019-01-30T20:11:14.330Z,76.90
2019-01-30T20:13:45.531Z,77.00
2019-01-30T20:16:16.976Z,77.00
2019-01-30T20:18:49.610Z,76.70
2019-01-30T20:21:25.069Z,76.90
2019-01-30T20:23:56.544Z,76.40
2019-01-30T20:26:27.969Z,76.60
2019-01-30T20:29:00.499Z,77.00
2019-01-30T20:31:34.122Z,76.30
2019-01-30T20:34:57.232Z,75.90
2019-01-30T20:41:06.245Z,75.90
2019-01-30T20:43:50.495Z,76.60
2019-01-30T20:46:38.314Z,76.40
2019-01-30T20:49:53.369Z,76.90
2019-01-30T20:52:17.353Z,77.10
2019-01-30T20:55:13.320Z,77.30
2019-01-30T20:57:51.294Z,77.40
2019-01-30T21:00:28.522Z,78.00
2019-01-30T21:03:32.059Z,77.60
2019-01-30T21:06:08.758Z,77.80
2019-01-30T21:08:48.036Z,77.50
2019-01-30T21:11:27.697Z,77.80
2019-01-30T21:14:20.436Z,77.30
2019-01-30T21:16:47.554Z,77.60
2019-01-30T21:19:24.340Z,77.20
2019-01-30T21:22:07.565Z,77.90
2019-01-30T21:24:42.082Z,77.80
2019-01-30T21:27:13.521Z,77.90
2019-01-30T21:29:47.495Z,78.30
2019-01-30T21:32:24.514Z,78.60
2019-01-30T21:34:58.179Z,78.40
2019-01-30T21:37:33.751Z,78.90
2019-01-30T21:40:10.066Z,78.40
2019-01-30T21:42:45.912Z,78.30
2019-01-30T21:45:23.214Z,78.80
2019-01-30T21:48:07.250Z,79.00
2019-01-30T21:50:43.038Z,79.20
2019-01-30T21:53:21.872Z,79.20
2019-01-30T21:55:53.107Z,79.00
2019-01-30T21:58:27.787Z,79.90
2019-01-30T22:01:05.598Z,79.80
2019-01-30T22:03:39.160Z,80.20
2019-01-30T22:06:13.821Z,79.60
2019-01-30T22:08:47.004Z,79.70
2019-01-30T22:11:18.369Z,80.20
2019-01-30T22:13:53.346Z,79.90
2019-01-30T22:16:24.671Z,80.10
2019-01-30T22:18:55.967Z,79.90
2019-01-30T22:21:26.817Z,80.10
2019-01-30T22:24:05.666Z,80.30
2019-01-30T22:26:33.059Z,80.20
2019-01-30T22:29:04.315Z,80.10
2019-01-30T22:31:35.231Z,80.60
2019-01-30T22:34:08.477Z,80.40
2019-01-30T22:36:39.544Z,80.70
2019-01-30T22:39:12.167Z,80.70
2019-01-30T22:41:45.585Z,81.00
2019-01-30T22:44:26.458Z,81.00
2019-01-30T22:46:57.828Z,81.00
2019-01-30T22:49:43.865Z,81.20
2019-01-30T22:52:21.708Z,81.50
2019-01-30T22:55:04.073Z,81.70
2019-01-30T22:57:44.451Z,82.00
2019-01-30T23:00:52.280Z,82.00
2019-01-30T23:04:10.750Z,82.00
2019-01-30T23:07:00.972Z,82.00
2019-01-30T23:10:12.722Z,82.20
2019-01-30T23:13:12.938Z,82.20
2019-01-30T23:16:32.779Z,82.50
2019-01-30T23:19:29.239Z,82.70
2019-01-30T23:22:48.986Z,82.50
2019-01-30T23:26:10.427Z,81.30
2019-01-30T23:29:25.861Z,81.30
2019-01-30T23:32:29.589Z,81.10
2019-01-30T23:35:37.187Z,80.30
2019-01-30T23:38:44.293Z,80.60
2019-01-30T23:42:00.264Z,79.70
2019-01-30T23:44:53.139Z,79.20
2019-01-30T23:48:28.856Z,79.50
2019-01-30T23:51:40.790Z,78.50
2019-01-30T23:54:43.851Z,77.40
2019-01-30T23:58:07.919Z,77.40
